createdAt,value
2019-03-21T00:00:04.796Z,2.30
2019-03-21T00:01:05.030Z,2.30
2019-03-21T00:02:05.102Z,2.30
2019-03-21T00:03:05.343Z,2.30
2019-03-21T00:04:08.080Z,2.20
2019-03-21T00:05:05.273Z,2.20
2019-03-21T00:06:05.423Z,2.20
2019-03-21T00:07:05.652Z,2.20
2019-03-21T00:08:04.865Z,2.20
2019-03-21T00:09:07.643Z,2.20
2019-03-21T00:10:04.709Z,2.20
2019-03-21T00:11:04.861Z,2.20
2019-03-21T00:12:04.963Z,2.20
2019-03-21T00:13:07.808Z,2.20
2019-03-21T00:14:07.105Z,2.10
2019-03-21T00:15:05.576Z,2.20
2019-03-21T00:16:04.672Z,2.20
2019-03-21T00:17:07.434Z,2.10
2019-03-21T00:18:08.108Z,2.20
2019-03-21T00:19:07.643Z,2.10
2019-03-21T00:20:05.616Z,2.10
2019-03-21T00:21:04.855Z,2.10
2019-03-21T00:22:05.042Z,2.10
2019-03-21T00:23:07.649Z,2.10
2019-03-21T00:24:08.371Z,2.10
2019-03-21T00:25:05.415Z,2.10
2019-03-21T00:26:08.257Z,2.10
2019-03-21T00:27:05.209Z,2.00
2019-03-21T00:28:05.634Z,2.00
2019-03-21T00:29:05.497Z,2.00
2019-03-21T00:30:05.475Z,2.00
2019-03-21T00:31:05.701Z,2.00
2019-03-21T00:32:07.481Z,2.00
2019-03-21T00:33:05.484Z,2.00
2019-03-21T00:34:05.625Z,2.00
2019-03-21T00:35:07.367Z,2.00
2019-03-21T00:36:05.383Z,2.00
2019-03-21T00:37:10.652Z,2.00
2019-03-21T00:38:05.662Z,1.90
2019-03-21T00:39:04.774Z,2.00
2019-03-21T00:40:10.080Z,2.00
2019-03-21T00:41:05.103Z,2.00
2019-03-21T00:42:07.880Z,2.00
2019-03-21T00:43:04.902Z,1.90
2019-03-21T00:44:05.017Z,1.90
2019-03-21T00:45:05.149Z,1.90
2019-03-21T00:46:05.265Z,1.90
2019-03-21T00:47:05.555Z,1.80
2019-03-21T00:48:04.689Z,1.80
2019-03-21T00:49:07.408Z,1.70
2019-03-21T00:50:05.409Z,1.70
2019-03-21T00:51:08.163Z,1.70
2019-03-21T00:52:05.198Z,1.70
2019-03-21T00:53:05.287Z,1.70
2019-03-21T00:54:05.344Z,1.70
2019-03-21T00:55:05.393Z,1.70
2019-03-21T00:56:08.196Z,1.70
2019-03-21T00:57:07.781Z,1.70
2019-03-21T00:58:04.799Z,1.70
2019-03-21T00:59:04.992Z,1.70
2019-03-21T01:00:05.108Z,1.70
2019-03-21T01:01:05.307Z,1.70
2019-03-21T01:02:05.523Z,1.70
2019-03-21T01:03:04.951Z,1.80
2019-03-21T01:04:07.627Z,1.80
2019-03-21T01:05:05.554Z,1.70
2019-03-21T01:06:07.157Z,1.70
2019-03-21T01:07:05.173Z,1.70
2019-03-21T01:08:05.378Z,1.80
2019-03-21T01:09:05.542Z,1.70
2019-03-21T01:10:04.804Z,1.70
2019-03-21T01:11:04.884Z,1.70
2019-03-21T01:12:07.539Z,1.70
2019-03-21T01:13:05.499Z,1.60
2019-03-21T01:14:05.664Z,1.70
2019-03-21T01:15:07.379Z,1.60
2019-03-21T01:16:05.340Z,1.60
2019-03-21T01:17:05.580Z,1.60
2019-03-21T01:18:07.293Z,1.50
2019-03-21T01:19:05.288Z,1.50
2019-03-21T01:20:05.443Z,1.50
2019-03-21T01:21:08.208Z,1.50
2019-03-21T01:22:05.301Z,1.40
2019-03-21T01:23:08.059Z,1.50
2019-03-21T01:24:07.634Z,1.50
2019-03-21T01:25:04.696Z,1.50
2019-03-21T01:26:04.834Z,1.50
2019-03-21T01:27:04.945Z,1.50
2019-03-21T01:28:07.880Z,1.50
2019-03-21T01:29:04.959Z,1.50
2019-03-21T01:30:07.634Z,1.50
2019-03-21T01:31:08.145Z,1.50
2019-03-21T01:32:05.281Z,1.50
2019-03-21T01:33:05.450Z,1.50
2019-03-21T01:34:08.061Z,1.50
2019-03-21T01:35:07.531Z,1.50
2019-03-21T01:36:08.035Z,1.50
2019-03-21T01:37:04.953Z,1.50
2019-03-21T01:38:07.576Z,1.50
2019-03-21T01:39:05.662Z,1.50
2019-03-21T01:40:07.383Z,1.50
2019-03-21T01:41:07.959Z,1.50
2019-03-21T01:42:07.500Z,1.50
2019-03-21T01:43:05.618Z,1.50
2019-03-21T01:44:05.035Z,1.50
2019-03-21T01:45:05.167Z,1.50
2019-03-21T01:46:07.924Z,1.50
2019-03-21T01:47:04.979Z,1.60
2019-03-21T01:48:07.601Z,1.50
2019-03-21T01:49:05.570Z,1.50
2019-03-21T01:50:04.705Z,1.60
2019-03-21T01:51:10.007Z,1.50
2019-03-21T01:52:05.173Z,1.50
2019-03-21T01:53:05.340Z,1.50
2019-03-21T01:54:13.026Z,1.40
2019-03-21T01:55:04.999Z,1.40
2019-03-21T01:56:05.173Z,1.40
2019-03-21T01:57:05.322Z,1.40
2019-03-21T01:58:05.451Z,1.40
2019-03-21T01:59:05.538Z,1.40
2019-03-21T02:00:04.668Z,1.30
2019-03-21T02:01:04.877Z,1.30
2019-03-21T02:02:04.997Z,1.30
2019-03-21T02:03:05.218Z,1.30
2019-03-21T02:04:05.375Z,1.30
2019-03-21T02:05:05.536Z,1.20
2019-03-21T02:06:04.691Z,1.20
2019-03-21T02:07:07.430Z,1.20
2019-03-21T02:08:05.385Z,1.20
2019-03-21T02:09:05.526Z,1.20
2019-03-21T02:10:05.744Z,1.10
2019-03-21T02:11:05.022Z,1.20
2019-03-21T02:12:08.094Z,1.10
2019-03-21T02:13:07.791Z,1.10
2019-03-21T02:14:04.813Z,1.10
2019-03-21T02:15:04.917Z,1.10
2019-03-21T02:16:04.992Z,1.10
2019-03-21T02:17:05.174Z,1.10
2019-03-21T02:18:07.802Z,1.20
2019-03-21T02:19:04.883Z,1.10
2019-03-21T02:20:05.764Z,1.20
2019-03-21T02:21:04.938Z,1.20
2019-03-21T02:22:05.065Z,1.10
2019-03-21T02:23:07.773Z,1.20
2019-03-21T02:24:04.722Z,1.20
2019-03-21T02:25:04.941Z,1.20
2019-03-21T02:26:05.092Z,1.20
2019-03-21T02:27:05.243Z,1.20
2019-03-21T02:28:07.941Z,1.20
2019-03-21T02:29:04.952Z,1.20
2019-03-21T02:30:05.135Z,1.20
2019-03-21T02:31:10.432Z,1.20
2019-03-21T02:32:05.413Z,1.10
2019-03-21T02:33:05.501Z,1.10
2019-03-21T02:34:04.796Z,1.10
2019-03-21T02:35:05.100Z,1.20
2019-03-21T02:36:05.508Z,1.20
2019-03-21T02:37:04.709Z,1.10
2019-03-21T02:38:09.926Z,1.10
2019-03-21T02:39:04.986Z,1.10
2019-03-21T02:40:05.222Z,1.20
2019-03-21T02:41:05.359Z,1.10
2019-03-21T02:42:05.415Z,1.10
2019-03-21T02:43:05.639Z,1.10
2019-03-21T02:44:05.236Z,1.10
2019-03-21T02:45:08.762Z,1.10
2019-03-21T02:46:04.801Z,1.10
2019-03-21T02:47:05.025Z,1.10
2019-03-21T02:48:07.772Z,1.10
2019-03-21T02:49:04.728Z,1.10
2019-03-21T02:50:07.342Z,1.00
2019-03-21T02:51:07.848Z,1.00
2019-03-21T02:52:07.373Z,1.00
2019-03-21T02:53:05.512Z,1.00
2019-03-21T02:54:05.646Z,1.00
2019-03-21T02:55:07.465Z,0.90
2019-03-21T02:56:05.552Z,1.00
2019-03-21T02:57:04.810Z,0.90
2019-03-21T02:58:07.576Z,0.90
2019-03-21T02:59:05.653Z,0.90
2019-03-21T03:00:07.324Z,0.90
2019-03-21T03:01:05.335Z,0.90
2019-03-21T03:02:05.423Z,0.90
2019-03-21T03:03:05.600Z,0.90
2019-03-21T03:04:04.815Z,0.90
2019-03-21T03:05:07.419Z,0.90
2019-03-21T03:06:08.080Z,0.90
2019-03-21T03:07:07.677Z,0.90
2019-03-21T03:08:04.703Z,0.90
2019-03-21T03:09:04.837Z,0.90
2019-03-21T03:10:07.470Z,0.90
2019-03-21T03:11:05.478Z,0.90
2019-03-21T03:12:05.599Z,0.90
2019-03-21T03:13:07.295Z,0.90
2019-03-21T03:14:07.828Z,0.90
2019-03-21T03:15:21.297Z,0.80
2019-03-21T03:16:05.530Z,0.80
2019-03-21T03:17:04.737Z,0.80
2019-03-21T03:18:04.895Z,0.80
2019-03-21T03:19:04.993Z,0.80
2019-03-21T03:20:05.121Z,0.90
2019-03-21T03:21:07.753Z,0.80
2019-03-21T03:22:07.296Z,0.80
2019-03-21T03:23:05.255Z,0.80
2019-03-21T03:24:05.425Z,0.80
2019-03-21T03:25:08.243Z,0.80
2019-03-21T03:26:05.296Z,0.80
2019-03-21T03:27:05.533Z,0.80
2019-03-21T03:28:09.879Z,0.70
2019-03-21T03:29:07.385Z,0.70
2019-03-21T03:30:05.551Z,0.70
2019-03-21T03:31:04.649Z,0.70
2019-03-21T03:32:07.304Z,0.70
2019-03-21T03:33:05.295Z,0.70
2019-03-21T03:34:05.438Z,0.70
2019-03-21T03:35:05.605Z,0.70
2019-03-21T03:36:04.729Z,0.70
2019-03-21T03:37:04.826Z,0.70
2019-03-21T03:38:04.884Z,0.60
2019-03-21T03:39:07.519Z,0.70
2019-03-21T03:40:05.581Z,0.60
2019-03-21T03:41:07.263Z,0.70
2019-03-21T03:42:07.727Z,0.70
2019-03-21T03:43:04.785Z,0.70
2019-03-21T03:44:05.259Z,0.70
2019-03-21T03:45:08.026Z,0.70
2019-03-21T03:46:05.022Z,0.70
2019-03-21T03:47:07.690Z,0.70
2019-03-21T03:48:07.280Z,0.70
2019-03-21T03:49:07.888Z,0.70
2019-03-21T03:50:04.939Z,0.70
2019-03-21T03:51:07.641Z,0.70
2019-03-21T03:52:07.332Z,0.60
2019-03-21T03:53:05.319Z,0.60
2019-03-21T03:54:05.566Z,0.60
2019-03-21T03:55:04.730Z,0.60
2019-03-21T03:56:04.802Z,0.60
2019-03-21T03:57:04.927Z,0.60
2019-03-21T03:58:05.042Z,0.60
2019-03-21T03:59:07.658Z,0.60
2019-03-21T04:00:08.243Z,0.60
2019-03-21T04:01:05.261Z,0.60
2019-03-21T04:02:05.378Z,0.60
2019-03-21T04:03:05.576Z,0.60
2019-03-21T04:04:04.668Z,0.50
2019-03-21T04:05:07.339Z,0.50
2019-03-21T04:06:05.408Z,0.50
2019-03-21T04:07:05.656Z,0.50
2019-03-21T04:08:04.849Z,0.50
2019-03-21T04:09:05.159Z,0.50
2019-03-21T04:10:05.370Z,0.50
2019-03-21T04:11:08.143Z,0.60
2019-03-21T04:12:05.161Z,0.50
2019-03-21T04:13:07.813Z,0.60
2019-03-21T04:14:04.829Z,0.60
2019-03-21T04:15:04.907Z,0.60
2019-03-21T04:16:05.212Z,0.60
2019-03-21T04:17:05.393Z,0.60
2019-03-21T04:18:05.481Z,0.60
2019-03-21T04:19:05.609Z,0.60
2019-03-21T04:20:04.818Z,0.60
2019-03-21T04:21:05.097Z,0.60
2019-03-21T04:22:05.291Z,0.60
2019-03-21T04:23:05.574Z,0.60
2019-03-21T04:24:07.271Z,0.50
2019-03-21T04:25:10.377Z,0.40
2019-03-21T04:26:05.509Z,0.50
2019-03-21T04:27:04.683Z,0.40
2019-03-21T04:28:07.319Z,0.40
2019-03-21T04:29:07.828Z,0.40
2019-03-21T04:30:04.957Z,0.40
2019-03-21T04:31:07.660Z,0.40
2019-03-21T04:32:04.739Z,0.30
2019-03-21T04:33:07.493Z,0.40
2019-03-21T04:34:05.491Z,0.40
2019-03-21T04:35:04.798Z,0.30
2019-03-21T04:36:05.011Z,0.40
2019-03-21T04:37:05.115Z,0.40
2019-03-21T04:38:07.885Z,0.40
2019-03-21T04:39:07.548Z,0.40
2019-03-21T04:40:08.134Z,0.40
2019-03-21T04:41:05.152Z,0.40
2019-03-21T04:42:05.374Z,0.40
2019-03-21T04:43:05.580Z,0.30
2019-03-21T04:44:04.696Z,0.40
2019-03-21T04:45:04.885Z,0.40
2019-03-21T04:46:05.077Z,0.40
2019-03-21T04:47:05.205Z,0.40
2019-03-21T04:48:05.412Z,0.40
2019-03-21T04:49:05.589Z,0.40
2019-03-21T04:50:04.802Z,0.30
2019-03-21T04:51:07.487Z,0.30
2019-03-21T04:52:08.013Z,0.30
2019-03-21T04:53:07.456Z,0.30
2019-03-21T04:54:05.445Z,0.30
2019-03-21T04:55:05.744Z,0.30
2019-03-21T04:56:07.604Z,0.30
2019-03-21T04:57:08.159Z,0.30
2019-03-21T04:58:05.369Z,0.30
2019-03-21T04:59:05.595Z,0.30
2019-03-21T05:00:04.785Z,0.30
2019-03-21T05:01:04.942Z,0.30
2019-03-21T05:02:07.671Z,0.30
2019-03-21T05:03:05.668Z,0.10
2019-03-21T05:04:04.806Z,0.30
2019-03-21T05:05:04.939Z,0.30
2019-03-21T05:06:05.384Z,0.30
2019-03-21T05:07:05.623Z,0.30
2019-03-21T05:08:07.483Z,0.30
2019-03-21T05:09:08.034Z,0.30
2019-03-21T05:10:05.033Z,0.30
2019-03-21T05:11:07.369Z,0.30
2019-03-21T05:12:07.984Z,0.30
2019-03-21T05:13:05.264Z,0.30
2019-03-21T05:14:05.458Z,0.30
2019-03-21T05:15:08.122Z,0.30
2019-03-21T05:16:14.233Z,0.30
2019-03-21T05:17:05.151Z,0.30
2019-03-21T05:18:05.535Z,0.30
2019-03-21T05:19:07.548Z,0.40
2019-03-21T05:20:05.606Z,0.30
2019-03-21T05:21:07.232Z,0.30
2019-03-21T05:22:05.206Z,0.30
2019-03-21T05:23:05.523Z,0.30
2019-03-21T05:24:04.721Z,0.30
2019-03-21T05:25:07.894Z,0.30
2019-03-21T05:26:04.983Z,0.30
2019-03-21T05:27:05.369Z,0.30
2019-03-21T05:28:08.352Z,0.30
2019-03-21T05:29:05.417Z,0.30
2019-03-21T05:30:08.208Z,0.30
2019-03-21T05:31:05.350Z,0.30
2019-03-21T05:32:08.297Z,0.30
2019-03-21T05:33:05.471Z,0.30
2019-03-21T05:34:05.818Z,0.30
2019-03-21T05:35:07.618Z,0.30
2019-03-21T05:36:05.685Z,0.30
2019-03-21T05:37:07.533Z,0.30
2019-03-21T05:38:08.166Z,0.30
2019-03-21T05:39:05.229Z,0.30
2019-03-21T05:40:05.285Z,0.30
2019-03-21T05:41:07.988Z,0.40
2019-03-21T05:42:04.997Z,0.40
2019-03-21T05:43:07.759Z,0.40
2019-03-21T05:44:08.095Z,0.40
2019-03-21T05:45:05.216Z,0.40
2019-03-21T05:46:05.359Z,0.40
2019-03-21T05:47:08.114Z,0.50
2019-03-21T05:48:07.670Z,0.60
2019-03-21T05:49:07.533Z,0.60
2019-03-21T05:50:08.041Z,0.60
2019-03-21T05:51:05.097Z,0.60
2019-03-21T05:52:05.299Z,0.70
2019-03-21T05:53:10.462Z,0.80
2019-03-21T05:54:05.500Z,0.70
2019-03-21T05:55:05.174Z,0.80
2019-03-21T05:56:05.373Z,0.90
2019-03-21T05:57:08.161Z,1.10
2019-03-21T05:58:07.740Z,1.30
2019-03-21T05:59:04.753Z,1.30
2019-03-21T06:00:04.883Z,1.50
2019-03-21T06:01:05.006Z,1.70
2019-03-21T06:02:05.300Z,1.80
2019-03-21T06:03:05.405Z,2.10
2019-03-21T06:04:07.366Z,2.40
2019-03-21T06:05:05.495Z,2.40
2019-03-21T06:06:08.175Z,2.80
2019-03-21T06:07:05.671Z,2.80
2019-03-21T06:08:04.824Z,3.00
2019-03-21T06:09:04.963Z,3.20
2019-03-21T06:10:07.694Z,3.60
2019-03-21T06:11:07.403Z,3.70
2019-03-21T06:12:05.333Z,3.70
2019-03-21T06:13:05.402Z,3.90
2019-03-21T06:14:07.363Z,4.20
2019-03-21T06:15:05.332Z,4.20
2019-03-21T06:16:10.689Z,4.50
2019-03-21T06:17:05.658Z,4.50
2019-03-21T06:18:04.828Z,4.60
2019-03-21T06:19:04.994Z,4.80
2019-03-21T06:20:07.737Z,5.00
2019-03-21T06:21:04.906Z,5.00
2019-03-21T06:22:07.806Z,5.30
2019-03-21T06:23:04.898Z,5.20
2019-03-21T06:24:05.082Z,5.40
2019-03-21T06:25:07.769Z,5.60
2019-03-21T06:26:07.371Z,5.70
2019-03-21T06:27:13.903Z,5.70
2019-03-21T06:28:04.900Z,5.80
2019-03-21T06:29:04.797Z,5.90
2019-03-21T06:30:05.005Z,6.00
2019-03-21T06:31:05.206Z,6.00
2019-03-21T06:32:05.375Z,6.10
2019-03-21T06:33:08.044Z,6.40
2019-03-21T06:34:05.102Z,6.30
2019-03-21T06:35:05.293Z,6.50
2019-03-21T06:36:08.063Z,6.60
2019-03-21T06:37:07.716Z,6.70
2019-03-21T06:38:04.764Z,6.70
2019-03-21T06:39:10.039Z,6.80
2019-03-21T06:40:07.627Z,6.90
2019-03-21T06:41:08.159Z,7.00
2019-03-21T06:42:07.612Z,7.10
2019-03-21T06:43:08.103Z,7.20
2019-03-21T06:44:07.597Z,7.30
2019-03-21T06:45:04.831Z,7.30
2019-03-21T06:46:22.874Z,7.50
2019-03-21T06:47:10.656Z,7.60
2019-03-21T06:48:05.871Z,7.60
2019-03-21T06:49:10.253Z,7.70
2019-03-21T06:50:05.387Z,7.70
2019-03-21T06:51:05.840Z,7.80
2019-03-21T06:52:05.093Z,7.90
2019-03-21T06:53:07.848Z,8.00
2019-03-21T06:54:04.907Z,8.00
2019-03-21T06:55:05.069Z,8.10
2019-03-21T06:56:05.273Z,8.10
2019-03-21T06:57:05.456Z,8.20
2019-03-21T06:58:05.726Z,8.20
2019-03-21T06:59:07.464Z,8.30
2019-03-21T07:00:07.999Z,8.40
2019-03-21T07:01:07.526Z,8.40
2019-03-21T07:02:08.106Z,8.40
2019-03-21T07:03:05.283Z,8.40
2019-03-21T07:04:07.218Z,8.50
2019-03-21T07:05:04.852Z,8.60
2019-03-21T07:06:05.085Z,8.60
2019-03-21T07:07:08.271Z,8.60
2019-03-21T07:08:05.721Z,8.70
2019-03-21T07:09:04.820Z,8.70
2019-03-21T07:10:07.606Z,8.70
2019-03-21T07:11:05.832Z,8.70
2019-03-21T07:12:07.465Z,8.80
2019-03-21T07:13:08.128Z,8.80
2019-03-21T07:14:05.240Z,8.80
2019-03-21T07:15:05.430Z,8.80
2019-03-21T07:16:05.629Z,8.80
2019-03-21T07:17:04.963Z,8.80
2019-03-21T07:18:07.651Z,8.90
2019-03-21T07:19:05.771Z,8.90
2019-03-21T07:20:07.488Z,8.90
2019-03-21T07:21:05.487Z,8.90
2019-03-21T07:22:05.831Z,8.90
2019-03-21T07:23:05.113Z,8.90
2019-03-21T07:24:05.429Z,8.90
2019-03-21T07:25:13.122Z,8.90
2019-03-21T07:26:06.704Z,8.90
2019-03-21T07:27:07.520Z,9.00
2019-03-21T07:28:08.188Z,9.00
2019-03-21T07:29:05.297Z,9.10
2019-03-21T07:30:05.629Z,9.10
2019-03-21T07:31:04.870Z,9.00
2019-03-21T07:32:07.550Z,9.10
2019-03-21T07:33:05.677Z,9.10
2019-03-21T07:34:04.830Z,9.10
2019-03-21T07:35:05.093Z,9.10
2019-03-21T07:36:07.778Z,9.20
2019-03-21T07:37:10.103Z,9.20
2019-03-21T07:38:10.148Z,9.30
2019-03-21T07:39:05.221Z,9.20
2019-03-21T07:40:05.370Z,9.20
2019-03-21T07:41:05.618Z,9.30
2019-03-21T07:42:07.280Z,9.20
2019-03-21T07:43:05.424Z,9.20
2019-03-21T07:44:07.367Z,9.20
2019-03-21T07:45:05.445Z,9.20
2019-03-21T07:46:05.591Z,9.20
2019-03-21T07:47:12.484Z,9.30
2019-03-21T07:48:05.463Z,9.30
2019-03-21T07:49:05.609Z,9.30
2019-03-21T07:50:07.295Z,9.40
2019-03-21T07:51:10.383Z,9.40
2019-03-21T07:52:05.399Z,9.40
2019-03-21T07:53:08.092Z,9.40
2019-03-21T07:54:05.127Z,9.40
2019-03-21T07:55:07.819Z,9.50
2019-03-21T07:56:04.807Z,9.50
2019-03-21T07:57:07.881Z,9.50
2019-03-21T07:58:07.511Z,9.50
2019-03-21T07:59:08.088Z,9.50
2019-03-21T08:00:05.107Z,9.50
2019-03-21T08:01:05.601Z,9.50
2019-03-21T08:02:04.863Z,9.50
2019-03-21T08:03:07.622Z,9.60
2019-03-21T08:04:08.340Z,9.50
2019-03-21T08:05:08.056Z,9.50
2019-03-21T08:06:05.202Z,9.50
2019-03-21T08:07:05.371Z,9.60
2019-03-21T08:08:08.613Z,9.60
2019-03-21T08:09:05.664Z,9.60
2019-03-21T08:10:07.942Z,9.60
2019-03-21T08:11:07.535Z,9.70
2019-03-21T08:12:05.540Z,9.70
2019-03-21T08:13:04.695Z,9.80
2019-03-21T08:14:10.014Z,9.90
2019-03-21T08:15:05.074Z,9.80
2019-03-21T08:16:05.198Z,9.80
2019-03-21T08:17:05.472Z,9.90
2019-03-21T08:18:05.676Z,10.00
2019-03-21T08:19:04.922Z,10.00
2019-03-21T08:20:07.819Z,10.10
2019-03-21T08:21:04.942Z,10.10
2019-03-21T08:22:05.058Z,10.10
2019-03-21T08:23:05.205Z,10.10
2019-03-21T08:24:07.870Z,10.20
2019-03-21T08:25:04.866Z,10.20
2019-03-21T08:26:07.631Z,10.30
2019-03-21T08:27:08.313Z,10.30
2019-03-21T08:28:05.380Z,10.30
2019-03-21T08:29:05.700Z,10.30
2019-03-21T08:30:07.411Z,10.40
2019-03-21T08:31:08.110Z,10.50
2019-03-21T08:32:07.861Z,10.50
2019-03-21T08:33:04.950Z,10.50
2019-03-21T08:34:10.346Z,10.60
2019-03-21T08:35:07.891Z,10.60
2019-03-21T08:36:05.116Z,10.60
2019-03-21T08:37:05.278Z,10.70
2019-03-21T08:38:05.459Z,10.70
2019-03-21T08:39:08.263Z,10.80
2019-03-21T08:40:10.362Z,10.80
2019-03-21T08:41:05.377Z,10.80
2019-03-21T08:42:05.506Z,10.90
2019-03-21T08:43:05.982Z,10.90
2019-03-21T08:44:05.111Z,11.00
2019-03-21T08:45:05.176Z,11.00
2019-03-21T08:46:07.871Z,11.10
2019-03-21T08:47:07.476Z,11.10
2019-03-21T08:48:07.999Z,11.10
2019-03-21T08:49:07.627Z,11.10
2019-03-21T08:50:05.824Z,11.10
2019-03-21T08:51:12.531Z,11.10
2019-03-21T08:52:05.506Z,11.10
2019-03-21T08:53:05.605Z,11.10
2019-03-21T08:54:04.830Z,11.20
2019-03-21T08:55:04.969Z,11.20
2019-03-21T08:56:07.797Z,11.20
2019-03-21T08:57:04.788Z,11.20
2019-03-21T08:58:07.388Z,11.30
2019-03-21T08:59:07.864Z,11.30
2019-03-21T09:00:07.510Z,11.40
2019-03-21T09:01:05.595Z,11.30
2019-03-21T09:02:07.325Z,11.50
2019-03-21T09:03:05.437Z,11.40
2019-03-21T09:04:08.119Z,11.50
2019-03-21T09:05:07.725Z,11.60
2019-03-21T09:06:04.744Z,11.60
2019-03-21T09:07:10.212Z,11.60
2019-03-21T09:08:07.888Z,11.70
2019-03-21T09:09:04.910Z,11.70
2019-03-21T09:10:08.082Z,11.70
2019-03-21T09:11:07.837Z,11.80
2019-03-21T09:12:04.846Z,11.70
2019-03-21T09:13:04.951Z,11.80
2019-03-21T09:14:05.177Z,11.80
2019-03-21T09:15:07.988Z,11.90
2019-03-21T09:16:05.476Z,11.90
2019-03-21T09:17:05.685Z,11.90
2019-03-21T09:18:05.326Z,12.00
2019-03-21T09:19:20.764Z,12.00
2019-03-21T09:20:07.375Z,12.10
2019-03-21T09:21:18.813Z,12.10
2019-03-21T09:22:04.928Z,12.10
2019-03-21T09:23:07.641Z,12.20
2019-03-21T09:24:05.732Z,12.20
2019-03-21T09:25:04.988Z,12.20
2019-03-21T09:26:07.605Z,12.30
2019-03-21T09:27:08.175Z,12.30
2019-03-21T09:28:05.166Z,12.30
2019-03-21T09:29:05.238Z,12.40
2019-03-21T09:30:05.593Z,12.40
2019-03-21T09:31:04.697Z,12.40
2019-03-21T09:32:05.045Z,12.40
2019-03-21T09:33:05.160Z,12.50
2019-03-21T09:34:10.304Z,12.50
2019-03-21T09:35:05.317Z,12.50
2019-03-21T09:36:07.937Z,12.60
2019-03-21T09:37:04.935Z,12.60
2019-03-21T09:38:07.735Z,12.60
2019-03-21T09:39:07.369Z,12.70
2019-03-21T09:40:05.364Z,12.70
2019-03-21T09:41:08.121Z,12.80
2019-03-21T09:42:07.747Z,12.80
2019-03-21T09:43:09.795Z,12.70
2019-03-21T09:44:07.471Z,12.80
2019-03-21T09:45:05.505Z,12.80
2019-03-21T09:46:08.207Z,12.90
2019-03-21T09:47:05.222Z,12.90
2019-03-21T09:48:05.487Z,12.90
2019-03-21T09:49:05.779Z,12.90
2019-03-21T09:50:05.342Z,12.90
2019-03-21T09:51:05.462Z,13.00
2019-03-21T09:52:07.490Z,13.00
2019-03-21T09:53:05.460Z,13.00
2019-03-21T09:54:09.420Z,13.00
2019-03-21T09:55:05.045Z,13.10
2019-03-21T09:56:05.367Z,13.10
2019-03-21T09:57:05.546Z,13.10
2019-03-21T09:58:04.719Z,13.10
2019-03-21T09:59:04.867Z,13.10
2019-03-21T10:00:07.518Z,13.20
2019-03-21T10:01:05.545Z,13.20
2019-03-21T10:02:04.721Z,13.20
2019-03-21T10:03:04.849Z,13.30
2019-03-21T10:04:04.934Z,13.30
2019-03-21T10:05:05.079Z,13.40
2019-03-21T10:06:05.174Z,13.40
2019-03-21T10:07:05.649Z,13.40
2019-03-21T10:08:07.353Z,13.50
2019-03-21T10:09:05.377Z,13.50
2019-03-21T10:10:05.507Z,13.60
2019-03-21T10:11:05.000Z,13.60
2019-03-21T10:12:07.709Z,13.60
2019-03-21T10:13:07.401Z,13.60
2019-03-21T10:14:07.937Z,13.70
2019-03-21T10:15:07.584Z,13.70
2019-03-21T10:16:05.695Z,13.70
2019-03-21T10:17:04.880Z,13.80
2019-03-21T10:18:07.581Z,13.80
2019-03-21T10:19:05.616Z,13.80
2019-03-21T10:20:04.844Z,13.80
2019-03-21T10:21:04.963Z,13.80
2019-03-21T10:22:10.140Z,13.90
2019-03-21T10:23:05.267Z,13.80
2019-03-21T10:24:07.952Z,13.90
2019-03-21T10:25:07.539Z,13.90
2019-03-21T10:26:10.680Z,14.00
2019-03-21T10:27:07.390Z,14.00
2019-03-21T10:28:08.034Z,14.00
2019-03-21T10:29:05.128Z,14.00
2019-03-21T10:30:05.284Z,14.00
2019-03-21T10:31:08.067Z,14.10
2019-03-21T10:32:13.818Z,14.10
2019-03-21T10:33:04.705Z,14.10
2019-03-21T10:34:07.291Z,14.20
2019-03-21T10:35:05.378Z,14.20
2019-03-21T10:36:05.613Z,14.20
2019-03-21T10:37:04.744Z,14.30
2019-03-21T10:38:04.887Z,14.20
2019-03-21T10:39:05.015Z,14.20
2019-03-21T10:40:05.176Z,14.30
2019-03-21T10:41:05.298Z,14.30
2019-03-21T10:42:05.491Z,14.40
2019-03-21T10:43:05.734Z,14.40
2019-03-21T10:44:07.283Z,14.40
2019-03-21T10:45:05.387Z,14.40
2019-03-21T10:46:05.612Z,14.40
2019-03-21T10:47:04.878Z,14.40
2019-03-21T10:48:05.063Z,14.40
2019-03-21T10:49:05.288Z,14.40
2019-03-21T10:50:07.941Z,14.50
2019-03-21T10:51:05.001Z,14.40
2019-03-21T10:52:07.719Z,14.50
2019-03-21T10:53:04.685Z,14.50
2019-03-21T10:54:04.949Z,14.50
2019-03-21T10:55:05.297Z,14.50
2019-03-21T10:56:05.574Z,14.60
2019-03-21T10:57:07.204Z,14.60
2019-03-21T10:58:05.155Z,14.60
2019-03-21T10:59:07.771Z,14.60
2019-03-21T11:00:04.790Z,14.50
2019-03-21T11:01:04.896Z,14.50
2019-03-21T11:02:07.402Z,14.50
2019-03-21T11:03:07.425Z,14.50
2019-03-21T11:04:08.011Z,14.50
2019-03-21T11:05:04.921Z,14.50
2019-03-21T11:06:05.069Z,14.50
2019-03-21T11:07:05.320Z,14.60
2019-03-21T11:08:05.612Z,14.50
2019-03-21T11:09:04.810Z,14.60
2019-03-21T11:10:04.910Z,14.60
2019-03-21T11:11:07.697Z,14.70
2019-03-21T11:12:04.744Z,14.70
2019-03-21T11:13:04.827Z,14.80
2019-03-21T11:14:07.659Z,14.90
2019-03-21T11:15:04.801Z,14.90
2019-03-21T11:16:05.084Z,14.90
2019-03-21T11:17:05.231Z,15.00
2019-03-21T11:18:07.907Z,15.00
2019-03-21T11:19:07.448Z,15.10
2019-03-21T11:20:08.024Z,15.10
2019-03-21T11:21:10.059Z,15.20
2019-03-21T11:22:06.445Z,15.10
2019-03-21T11:23:07.604Z,15.20
2019-03-21T11:24:05.681Z,15.20
2019-03-21T11:25:07.465Z,15.30
2019-03-21T11:26:05.512Z,15.30
2019-03-21T11:27:05.561Z,15.30
2019-03-21T11:28:05.854Z,15.40
2019-03-21T11:29:05.109Z,15.40
2019-03-21T11:30:15.811Z,15.40
2019-03-21T11:31:05.346Z,15.40
2019-03-21T11:32:05.494Z,15.50
2019-03-21T11:33:08.133Z,15.50
2019-03-21T11:34:05.245Z,15.50
2019-03-21T11:35:05.513Z,15.60
2019-03-21T11:36:05.742Z,15.60
2019-03-21T11:37:07.481Z,15.70
2019-03-21T11:38:05.532Z,15.70
2019-03-21T11:39:05.591Z,15.70
2019-03-21T11:40:04.763Z,15.70
2019-03-21T11:41:04.873Z,15.70
2019-03-21T11:42:05.040Z,15.70
2019-03-21T11:43:05.221Z,15.70
2019-03-21T11:44:05.685Z,15.70
2019-03-21T11:45:09.981Z,15.70
2019-03-21T11:46:05.137Z,15.70
2019-03-21T11:47:05.245Z,15.60
2019-03-21T11:48:07.965Z,15.60
2019-03-21T11:49:05.097Z,15.60
2019-03-21T11:50:05.341Z,15.60
2019-03-21T11:51:05.697Z,15.70
2019-03-21T11:52:05.159Z,15.70
2019-03-21T11:53:07.942Z,15.70
2019-03-21T11:54:04.982Z,15.70
2019-03-21T11:55:07.649Z,15.70
2019-03-21T11:56:05.563Z,15.70
2019-03-21T11:57:10.788Z,15.70
2019-03-21T11:58:04.743Z,15.70
2019-03-21T11:59:05.098Z,15.70
2019-03-21T12:00:05.405Z,15.70
2019-03-21T12:01:05.775Z,15.70
2019-03-21T12:02:05.147Z,15.70
2019-03-21T12:03:05.467Z,15.70
2019-03-21T12:04:07.361Z,15.80
2019-03-21T12:05:05.334Z,15.80
2019-03-21T12:06:05.472Z,15.80
2019-03-21T12:07:08.158Z,15.80
2019-03-21T12:08:05.152Z,15.80
2019-03-21T12:09:05.303Z,15.80
2019-03-21T12:10:07.957Z,15.90
2019-03-21T12:11:07.438Z,15.90
2019-03-21T12:12:05.483Z,15.90
2019-03-21T12:13:05.600Z,15.90
2019-03-21T12:14:04.799Z,15.90
2019-03-21T12:15:05.018Z,15.90
2019-03-21T12:16:05.209Z,16.00
2019-03-21T12:17:08.118Z,15.90
2019-03-21T12:18:05.125Z,15.90
2019-03-21T12:19:05.309Z,15.90
2019-03-21T12:20:05.553Z,15.80
2019-03-21T12:21:07.327Z,15.80
2019-03-21T12:22:05.339Z,15.80
2019-03-21T12:23:05.464Z,15.80
2019-03-21T12:24:10.829Z,15.80
2019-03-21T12:25:04.842Z,15.80
2019-03-21T12:26:04.963Z,15.90
2019-03-21T12:27:05.203Z,15.80
2019-03-21T12:28:05.352Z,15.90
2019-03-21T12:29:05.570Z,15.80
2019-03-21T12:30:04.731Z,15.90
2019-03-21T12:31:04.836Z,15.90
2019-03-21T12:32:07.428Z,16.00
2019-03-21T12:33:05.455Z,16.00
2019-03-21T12:34:05.538Z,16.00
2019-03-21T12:35:08.182Z,16.00
2019-03-21T12:36:05.269Z,15.90
2019-03-21T12:37:08.030Z,16.00
2019-03-21T12:38:07.595Z,16.00
2019-03-21T12:39:05.827Z,16.00
2019-03-21T12:40:04.972Z,16.00
2019-03-21T12:41:05.233Z,16.00
2019-03-21T12:42:07.957Z,16.10
2019-03-21T12:43:04.945Z,16.00
2019-03-21T12:44:05.420Z,16.10
2019-03-21T12:45:05.679Z,16.10
2019-03-21T12:46:04.952Z,16.00
2019-03-21T12:47:05.201Z,16.00
2019-03-21T12:48:07.882Z,15.90
2019-03-21T12:49:04.843Z,16.00
2019-03-21T12:50:07.472Z,16.00
2019-03-21T12:51:05.576Z,16.00
2019-03-21T12:52:08.209Z,16.00
2019-03-21T12:53:05.187Z,15.90
2019-03-21T12:54:07.860Z,15.90
2019-03-21T12:55:10.011Z,15.90
2019-03-21T12:56:10.244Z,15.90
2019-03-21T12:57:10.411Z,15.80
2019-03-21T12:58:05.359Z,15.80
2019-03-21T12:59:05.542Z,15.90
2019-03-21T13:00:07.262Z,15.80
2019-03-21T13:01:07.989Z,15.90
2019-03-21T13:02:05.188Z,15.80
2019-03-21T13:03:05.709Z,15.90
2019-03-21T13:04:05.675Z,15.90
2019-03-21T13:05:04.858Z,15.90
2019-03-21T13:06:05.048Z,15.90
2019-03-21T13:07:10.335Z,15.90
2019-03-21T13:08:07.927Z,16.00